Time;durP1;ratioP1;P1;durP2;ratioP2;P2;SDS_P1;SDS_P2;PMS_P1;PMS_P2;Temp;Humidity;BMP_temperature;BMP_pressure;BME280_temperature;BME280_humidity;BME280_pressure;Samples;Min_cycle;Max_cycle;Signal;HPM_P1;HPM_P2
2023/01/09 00:00:54;;;;;;;0.22;0.10;;;;;;;8.82;99.67;98517.06;8290796;28;20050;-57
2023/01/09 00:04:54;;;;;;;0.28;0.10;;;;;;;8.79;99.94;98520.94;8290859;28;20128;-55
2023/01/09 00:08:55;;;;;;;0.20;0.10;;;;;;;8.78;99.44;98518.44;8291585;28;20092;-55
2023/01/09 00:12:56;;;;;;;0.10;0.10;;;;;;;8.75;99.49;98521.47;8291302;28;21619;-56
2023/01/09 00:16:56;;;;;;;0.10;0.00;;;;;;;8.67;98.91;98522.38;8292262;28;20139;-54
2023/01/09 00:21:01;;;;;;;0.10;0.10;;;;;;;8.64;98.67;98525.41;8290503;28;20049;-56
2023/01/09 00:25:01;;;;;;;0.10;0.10;;;;;;;8.63;98.19;98526.41;8289153;28;20475;-55
2023/01/09 00:29:02;;;;;;;0.10;0.10;;;;;;;8.64;98.34;98530.81;8299873;28;20056;-54
2023/01/09 00:33:03;;;;;;;0.25;0.10;;;;;;;8.69;97.77;98536.47;8291221;28;20048;-54
2023/01/09 00:37:10;;;;;;;0.10;0.10;;;;;;;8.73;98.71;98545.06;8291551;28;20041;-54
2023/01/09 00:41:15;;;;;;;0.10;0.10;;;;;;;8.76;97.75;98542.00;8290372;28;20049;-54
2023/01/09 00:45:27;;;;;;;0.10;0.10;;;;;;;8.83;98.13;98542.97;8291054;28;20038;-55
2023/01/09 00:49:30;;;;;;;0.13;0.13;;;;;;;8.90;97.05;98546.63;8291204;28;20069;-56
2023/01/09 00:53:31;;;;;;;0.10;0.10;;;;;;;8.98;97.12;98542.03;8290635;28;20038;-57
2023/01/09 00:57:32;;;;;;;1.98;0.30;;;;;;;9.03;97.04;98547.72;8289900;28;20046;-56
2023/01/09 01:01:32;;;;;;;0.20;0.20;;;;;;;9.00;98.04;98550.75;8290009;28;20092;-55
2023/01/09 01:09:53;;;;;;;0.20;0.20;;;;;;;8.92;98.78;98558.06;8290244;28;20038;-59
2023/01/09 01:13:54;;;;;;;0.32;0.20;;;;;;;8.90;99.21;98565.47;8288939;28;20527;-58
2023/01/09 01:17:54;;;;;;;0.30;0.20;;;;;;;8.87;98.60;98555.06;8291043;28;20038;-58
2023/01/09 01:21:55;;;;;;;5.32;0.75;;;;;;;8.84;100.00;98560.81;8289936;28;20046;-59
2023/01/09 01:25:55;;;;;;;0.28;0.10;;;;;;;8.81;100.00;98562.00;8290587;28;20045;-57
2023/01/09 01:29:56;;;;;;;0.35;0.20;;;;;;;8.80;100.00;98565.72;8288869;28;20049;-58
2023/01/09 01:33:56;;;;;;;4.07;0.22;;;;;;;8.83;100.00;98565.38;8289766;28;20459;-59
2023/01/09 01:37:56;;;;;;;0.73;0.20;;;;;;;8.83;100.00;98575.28;8290839;28;20049;-59
2023/01/09 01:41:57;;;;;;;0.10;0.10;;;;;;;8.84;100.00;98571.59;8289574;28;20504;-56
2023/01/09 01:45:57;;;;;;;1.77;0.45;;;;;;;8.77;100.00;98567.91;8286730;28;20030;-58
2023/01/09 01:50:02;;;;;;;2.03;0.30;;;;;;;8.71;100.00;98576.69;8287492;28;20065;-53
2023/01/09 01:54:09;;;;;;;3.10;0.43;;;;;;;8.65;100.00;98585.47;8287377;28;20054;-53
2023/01/09 01:58:14;;;;;;;2.08;0.40;;;;;;;8.68;100.00;98593.22;8293259;28;20045;-52
2023/01/09 02:02:19;;;;;;;2.08;0.50;;;;;;;8.84;99.72;98603.94;8289359;28;20060;-56
2023/01/09 02:06:20;;;;;;;0.60;0.25;;;;;;;8.95;98.04;98606.22;8291523;28;20132;-52
2023/01/09 02:10:22;;;;;;;1.20;0.30;;;;;;;8.91;97.86;98611.09;8295781;28;20034;-49
2023/01/09 02:14:27;;;;;;;0.22;0.20;;;;;;;8.93;98.38;98613.63;8292849;28;20041;-55
2023/01/09 02:18:41;;;;;;;0.40;0.17;;;;;;;8.95;98.58;98600.81;8293087;28;20080;-56
2023/01/09 02:23:14;;;;;;;1.13;0.40;;;;;;;8.95;98.66;98598.13;8292297;28;20038;-55
2023/01/09 02:27:29;;;;;;;0.20;0.20;;;;;;;8.86;98.28;98601.88;8278400;28;20046;-54
2023/01/09 02:32:09;;;;;;;2.67;0.40;;;;;;;8.86;98.10;98613.50;8262211;28;20297;-55
2023/01/09 02:36:17;;;;;;;0.77;0.40;;;;;;;8.89;98.59;98626.63;8285572;28;20400;-56
2023/01/09 02:40:26;;;;;;;2.72;0.35;;;;;;;8.90;98.72;98630.13;8294452;28;20042;-56
2023/01/09 02:44:29;;;;;;;2.15;0.32;;;;;;;8.98;97.81;98630.09;8294687;28;20065;-56
2023/01/09 02:48:30;;;;;;;3.95;0.50;;;;;;;9.01;97.16;98627.06;8294343;28;20045;-56
2023/01/09 02:52:52;;;;;;;1.00;0.35;;;;;;;9.01;96.82;98629.75;8294933;28;20046;-57
2023/01/09 03:01:43;;;;;;;2.15;0.50;;;;;;;8.67;97.30;98635.50;8321454;28;20129;-54
2023/01/09 03:05:52;;;;;;;1.58;0.52;;;;;;;8.52;98.08;98628.31;8319536;28;20065;-55
2023/01/09 03:09:59;;;;;;;3.30;0.52;;;;;;;8.40;97.93;98633.22;8319156;28;20045;-55
2023/01/09 03:14:08;;;;;;;1.08;0.50;;;;;;;8.33;98.06;98634.09;8319015;28;20037;-55
2023/01/09 03:18:12;;;;;;;4.30;1.05;;;;;;;8.26;96.81;98641.19;8319450;28;20044;-55
2023/01/09 03:22:13;;;;;;;;;;;;;;;8.20;96.44;98647.22;8318423;28;20052;-50
2023/01/09 03:26:13;;;;;;;5.05;0.90;;;;;;;8.23;95.72;98646.91;8318990;28;19957;-52
2023/01/09 03:30:14;;;;;;;4.32;0.63;;;;;;;8.16;95.92;98646.72;8316831;28;20516;-53
2023/01/09 03:34:14;;;;;;;4.25;0.68;;;;;;;8.16;95.80;98645.84;8311468;28;20113;-54
2023/01/09 03:38:15;;;;;;;4.45;0.50;;;;;;;8.14;94.79;98647.91;8319012;28;20033;-54
2023/01/09 03:42:15;;;;;;;5.72;0.60;;;;;;;8.08;94.65;98654.78;8317924;28;20081;-53
2023/01/09 03:46:16;;;;;;;6.53;0.93;;;;;;;8.07;93.66;98648.59;8317916;28;20065;-54
2023/01/09 03:50:17;;;;;;;8.07;0.70;;;;;;;8.00;93.55;98658.31;8318052;28;20048;-53
2023/01/09 03:54:17;;;;;;;6.45;0.90;;;;;;;8.00;93.23;98666.41;8313812;28;20502;-53
2023/01/09 03:58:19;;;;;;;4.10;0.70;;;;;;;8.01;92.64;98665.41;8314830;28;20040;-53
2023/01/09 04:02:19;;;;;;;4.45;0.77;;;;;;;8.01;92.28;98665.41;8316236;28;20050;-53
2023/01/09 04:06:20;;;;;;;4.65;1.02;;;;;;;7.92;92.42;98661.03;8318171;28;20036;-53
2023/01/09 04:10:20;;;;;;;3.47;0.57;;;;;;;7.79;93.03;98671.47;8307833;28;20116;-54
2023/01/09 04:14:21;;;;;;;6.10;0.98;;;;;;;7.68;92.97;98671.78;8295219;28;20452;-53
2023/01/09 04:18:21;;;;;;;6.53;1.08;;;;;;;7.51;93.31;98671.97;8295893;28;20045;-55
2023/01/09 04:22:21;;;;;;;5.47;1.13;;;;;;;7.41;92.80;98682.84;8294055;28;20330;-53
2023/01/09 04:26:22;;;;;;;3.97;0.80;;;;;;;7.37;92.69;98676.13;8295413;28;20064;-53
2023/01/09 04:30:22;;;;;;;2.20;0.80;;;;;;;7.43;92.66;98696.97;8294772;28;20049;-54
2023/01/09 04:34:24;;;;;;;2.70;0.52;;;;;;;7.42;93.13;98695.31;8294044;28;20049;-53
2023/01/09 04:38:26;;;;;;;2.05;1.60;;;;;;;7.59;93.07;98702.38;8295371;28;20125;-53
2023/01/09 04:42:26;;;;;;;5.50;0.93;;;;;;;7.84;91.86;98706.75;8292397;28;20193;-52
2023/01/09 04:46:27;;;;;;;4.78;0.70;;;;;;;7.98;90.56;98703.41;8294476;28;20033;-54
2023/01/09 04:50:27;;;;;;;6.43;1.45;;;;;;;7.99;90.47;98705.06;8309432;28;20044;-54
2023/01/09 04:54:27;;;;;;;7.05;1.27;;;;;;;8.05;89.84;98708.94;8294024;28;20442;-53
2023/01/09 04:58:28;;;;;;;3.22;0.93;;;;;;;8.11;89.72;98710.94;8294155;28;20037;-54
2023/01/09 05:02:28;;;;;;;7.38;0.60;;;;;;;8.16;89.76;98710.44;8293104;28;20041;-54
2023/01/09 05:06:30;;;;;;;6.78;1.38;;;;;;;8.21;89.87;98713.47;8294120;28;20038;-54
2023/01/09 05:10:30;;;;;;;6.50;0.75;;;;;;;8.25;89.65;98712.16;8308742;28;20406;-52
2023/01/09 05:14:31;;;;;;;1.42;0.55;;;;;;;8.35;89.04;98705.56;8293477;28;20049;-50
2023/01/09 05:18:31;;;;;;;3.38;0.65;;;;;;;8.50;88.13;98720.03;8294113;28;20128;-53
2023/01/09 05:22:32;;;;;;;5.82;0.57;;;;;;;8.55;87.58;98716.81;8275669;28;20138;-60
2023/01/09 05:26:32;;;;;;;6.75;0.95;;;;;;;8.59;87.55;98723.53;8289645;28;20038;-57
2023/01/09 05:30:33;;;;;;;6.65;0.70;;;;;;;8.59;87.14;98721.69;8277774;28;20038;-57
2023/01/09 05:34:33;;;;;;;5.57;0.75;;;;;;;8.67;86.94;98723.53;8269368;28;20096;-59
2023/01/09 05:38:34;;;;;;;8.68;0.60;;;;;;;8.64;87.48;98732.81;8281648;28;20053;-58
2023/01/09 05:42:34;;;;;;;3.72;0.68;;;;;;;8.63;88.20;98730.28;8291938;28;20123;-57
2023/01/09 05:46:34;;;;;;;8.15;0.95;;;;;;;8.67;88.90;98734.31;8292802;28;20526;-55
2023/01/09 05:50:35;;;;;;;1.98;0.88;;;;;;;8.79;89.23;98724.84;8292436;28;20068;-56
2023/01/09 05:54:35;;;;;;;4.85;0.60;;;;;;;8.80;88.79;98726.50;8291951;28;20550;-56
2023/01/09 05:58:36;;;;;;;5.28;1.38;;;;;;;8.70;89.90;98728.56;8271103;28;20039;-56
2023/01/09 06:02:36;;;;;;;5.30;0.70;;;;;;;8.64;90.66;98738.19;8288240;28;20041;-55
2023/01/09 06:06:37;;;;;;;5.45;0.90;;;;;;;8.69;90.73;98725.03;8271108;28;20038;-54
2023/01/09 06:10:37;;;;;;;6.40;0.80;;;;;;;8.66;91.54;98743.41;8280806;28;20037;-54
2023/01/09 06:14:37;;;;;;;5.55;0.93;;;;;;;8.64;92.00;98729.25;8284575;28;20502;-55
2023/01/09 06:18:38;;;;;;;5.00;0.90;;;;;;;8.64;92.97;98726.56;8291545;28;20041;-55
2023/01/09 06:22:38;;;;;;;5.35;0.80;;;;;;;8.66;92.76;98736.13;8289113;28;20038;-56
2023/01/09 06:26:39;;;;;;;3.35;0.63;;;;;;;8.70;92.98;98736.66;8291382;28;20402;-56
2023/01/09 06:30:39;;;;;;;2.75;0.70;;;;;;;8.73;93.10;98744.38;8283633;28;20060;-55
2023/01/09 06:34:40;;;;;;;3.78;0.93;;;;;;;8.76;93.16;98754.81;8272703;28;20045;-56
2023/01/09 06:38:40;;;;;;;3.67;0.60;;;;;;;8.80;92.78;98737.28;8253016;28;20960;-56
2023/01/09 06:42:44;;;;;;;2.60;0.40;;;;;;;8.86;92.61;98755.47;8283622;28;20038;-56
2023/01/09 06:46:44;;;;;;;1.43;0.87;;;;;;;8.88;92.07;98753.44;8286072;28;20037;-57
2023/01/09 06:50:47;;;;;;;4.55;0.82;;;;;;;8.94;91.66;98747.38;8259405;28;20054;-55
2023/01/09 06:54:47;;;;;;;3.20;0.63;;;;;;;8.94;91.72;98750.06;8283612;28;20042;-56
2023/01/09 06:58:48;;;;;;;3.10;0.70;;;;;;;8.96;91.50;98742.63;8284094;28;20051;-56
2023/01/09 07:02:48;;;;;;;5.05;0.65;;;;;;;9.01;91.59;98745.63;8284476;28;20092;-56
2023/01/09 07:06:49;;;;;;;2.05;0.75;;;;;;;9.06;90.96;98748.66;8268355;28;20278;-56
2023/01/09 07:10:49;;;;;;;9.38;1.38;;;;;;;9.13;90.13;98744.25;8255489;28;20042;-57
2023/01/09 07:14:49;;;;;;;4.45;0.60;;;;;;;9.10;91.10;98739.22;8263797;28;20034;-56
2023/01/09 07:18:51;;;;;;;4.28;0.73;;;;;;;9.11;90.31;98752.50;8258527;28;20074;-57
2023/01/09 07:22:52;;;;;;;3.78;0.95;;;;;;;9.14;90.40;98754.00;8260513;28;20117;-56
2023/01/09 07:26:53;;;;;;;3.22;0.68;;;;;;;9.26;89.38;98760.69;8263888;28;20084;-57
2023/01/09 07:30:53;;;;;;;3.85;0.98;;;;;;;9.24;89.63;98757.34;8273127;28;20531;-52
2023/01/09 07:34:54;;;;;;;3.13;0.73;;;;;;;9.19;90.00;98765.13;8275729;28;20457;-54
2023/01/09 07:38:54;;;;;;;2.58;0.70;;;;;;;9.24;89.25;98762.75;8279679;28;20141;-54
2023/01/09 07:42:55;;;;;;;3.42;0.60;;;;;;;9.35;87.57;98773.13;8276434;28;20042;-52
2023/01/09 07:46:55;;;;;;;5.40;0.93;;;;;;;9.40;87.05;98768.06;8287991;28;20042;-53
2023/01/09 07:50:55;;;;;;;7.25;1.23;;;;;;;9.34;88.08;98787.63;8295493;28;20042;-52
2023/01/09 07:54:56;;;;;;;9.18;1.40;;;;;;;9.30;87.85;98792.53;8295202;28;20436;-52
2023/01/09 07:58:56;;;;;;;10.43;1.20;;;;;;;9.44;86.70;98785.56;8257235;28;20050;-53
2023/01/09 08:02:56;;;;;;;8.40;1.00;;;;;;;9.43;87.01;98795.50;8295269;28;20034;-54
2023/01/09 08:06:57;;;;;;;3.83;0.73;;;;;;;9.48;86.98;98803.06;8305646;28;20128;-53
2023/01/09 08:10:58;;;;;;;3.42;0.60;;;;;;;9.48;87.42;98803.06;8327386;28;20048;-53
2023/01/09 08:14:58;;;;;;;3.08;0.70;;;;;;;9.50;86.73;98807.28;8327545;28;20042;-53
2023/01/09 08:18:59;;;;;;;7.10;0.90;;;;;;;9.53;87.07;98812.34;8317582;28;20052;-53
2023/01/09 08:22:59;;;;;;;6.05;1.00;;;;;;;9.53;87.07;98806.94;8292795;28;20156;-52
2023/01/09 08:26:59;;;;;;;3.60;0.63;;;;;;;9.51;87.62;98821.59;8293207;28;20060;-53
2023/01/09 08:31:00;;;;;;;8.07;1.48;;;;;;;9.53;88.16;98823.13;8293676;28;20124;-53
2023/01/09 08:35:00;;;;;;;6.45;1.25;;;;;;;9.47;89.27;98833.75;8292832;28;20551;-54
2023/01/09 08:39:01;;;;;;;8.15;0.95;;;;;;;9.45;89.48;98825.00;8297854;28;20041;-52
2023/01/09 08:47:23;;;;;;;4.85;0.60;;;;;;;9.28;92.97;98839.56;8270947;28;20053;-51
2023/01/09 08:51:23;;;;;;;3.03;0.93;;;;;;;9.20;94.76;98847.66;8259638;28;20050;-53
2023/01/09 08:55:24;;;;;;;4.75;0.80;;;;;;;9.20;94.45;98842.28;8261119;28;20621;-53
2023/01/09 08:59:24;;;;;;;2.63;0.70;;;;;;;9.24;94.12;98855.25;8260816;28;20039;-53
2023/01/09 09:03:24;;;;;;;3.88;1.10;;;;;;;9.33;92.09;98843.41;8262178;28;20045;-53
2023/01/09 09:07:25;;;;;;;4.32;0.88;;;;;;;9.49;91.19;98847.91;8290864;28;20049;-53
2023/01/09 09:11:25;;;;;;;6.50;0.65;;;;;;;9.53;90.47;98843.84;8289798;28;20042;-54
2023/01/09 09:15:27;;;;;;;2.85;0.60;;;;;;;9.76;86.61;98858.25;8288817;28;20549;-53
2023/01/09 09:19:28;;;;;;;2.60;0.40;;;;;;;9.93;84.86;98846.34;8292000;28;20073;-53
2023/01/09 09:23:28;;;;;;;4.25;0.73;;;;;;;9.95;85.30;98868.63;8290949;28;20099;-53
2023/01/09 09:27:30;;;;;;;1.52;0.40;;;;;;;9.98;85.07;98866.38;8292757;28;20262;-53
2023/01/09 09:31:31;;;;;;;2.17;0.52;;;;;;;10.02;84.55;98866.88;8292650;28;20041;-53
2023/01/09 09:35:32;;;;;;;3.28;0.85;;;;;;;10.07;84.73;98880.72;8292403;28;20087;-50
2023/01/09 09:39:33;;;;;;;2.03;0.45;;;;;;;10.12;84.08;98889.13;8293092;28;20089;-53
2023/01/09 09:45:14;;;;;;;0.80;0.40;;;;;;;10.11;84.49;98892.84;8292149;28;20565;-52
2023/01/09 09:48:36;;;;;;;1.35;0.60;;;;;;;10.14;84.67;98903.28;8292517;28;20514;-53
2023/01/09 09:53:17;;;;;;;2.60;0.40;;;;;;;10.20;83.54;98907.13;8291533;28;20396;-52
2023/01/09 09:57:27;;;;;;;1.40;0.47;;;;;;;10.21;83.99;98917.75;8292013;28;20474;-52
2023/01/09 10:01:51;;;;;;;0.57;0.28;;;;;;;10.19;84.59;98927.91;8291845;28;20084;-53
2023/01/09 10:05:53;;;;;;;1.60;0.70;;;;;;;10.15;84.57;98923.88;8292011;28;20048;-53
2023/01/09 10:09:57;;;;;;;2.53;0.70;;;;;;;10.10;85.20;98930.81;8291589;28;20065;-52
2023/01/09 10:14:05;;;;;;;1.35;0.73;;;;;;;10.04;85.47;98926.94;8291095;28;20092;-53
2023/01/09 10:18:17;;;;;;;3.30;0.57;;;;;;;10.07;86.40;98948.22;8290519;28;20041;-53
2023/01/09 10:22:48;;;;;;;2.35;0.70;;;;;;;10.08;85.69;98941.81;8291266;28;20045;-54
2023/01/09 10:26:51;;;;;;;1.90;0.35;;;;;;;10.15;83.62;98942.78;8291202;28;20499;-53
2023/01/09 10:31:16;;;;;;;3.97;0.52;;;;;;;10.30;82.83;98940.16;8290295;28;20434;-52
2023/01/09 10:35:42;;;;;;;2.13;0.70;;;;;;;10.31;83.15;98949.97;8286562;28;20391;-53
2023/01/09 10:39:53;;;;;;;1.73;0.43;;;;;;;10.29;81.96;98939.34;8287882;28;20050;-54
2023/01/09 10:44:05;;;;;;;3.45;0.40;;;;;;;10.32;82.31;98943.53;8287418;28;20128;-53
2023/01/09 10:48:19;;;;;;;0.40;0.30;;;;;;;10.31;82.29;98952.66;8287018;28;20503;-55
2023/01/09 10:52:27;;;;;;;3.00;0.40;;;;;;;10.27;82.68;98954.88;8283643;28;20326;-53
2023/01/09 10:56:32;;;;;;;2.65;0.60;;;;;;;10.26;83.94;98947.78;8255742;28;20061;-55
2023/01/09 11:00:33;;;;;;;1.45;0.63;;;;;;;10.27;83.70;98952.16;8258201;28;20050;-53
2023/01/09 11:04:38;;;;;;;2.63;0.50;;;;;;;10.22;84.95;98951.88;8262778;28;20112;-55
2023/01/09 11:08:44;;;;;;;2.03;0.40;;;;;;;10.17;83.88;98940.75;8288521;28;20449;-54
2023/01/09 11:12:44;;;;;;;2.97;0.60;;;;;;;10.16;84.10;98933.66;8287512;28;20499;-53
2023/01/09 11:16:54;;;;;;;2.95;0.45;;;;;;;10.19;85.90;98927.91;8289401;28;20431;-54
2023/01/09 11:20:55;;;;;;;0.60;0.30;;;;;;;10.21;87.92;98941.25;8293208;28;20432;-52
2023/01/09 11:25:00;;;;;;;3.03;0.40;;;;;;;10.13;86.73;98946.69;8296729;28;20129;-52
2023/01/09 11:29:06;;;;;;;4.00;0.40;;;;;;;10.08;87.24;98951.75;8297449;28;20034;-52
2023/01/09 11:33:18;;;;;;;2.15;0.60;;;;;;;10.01;85.92;98957.81;8295661;28;20046;-53
2023/01/09 11:37:25;;;;;;;0.47;0.30;;;;;;;9.94;84.95;98982.97;8296681;28;20052;-54
2023/01/09 11:41:30;;;;;;;0.38;0.20;;;;;;;9.86;84.98;98986.53;8296280;28;20038;-53
2023/01/09 11:45:33;;;;;;;0.88;0.50;;;;;;;9.79;85.40;98984.75;8296187;28;20534;-52
2023/01/09 11:49:34;;;;;;;1.85;0.40;;;;;;;9.80;86.88;98986.41;8296390;28;20034;-53
2023/01/09 11:54:12;;;;;;;1.55;0.20;;;;;;;9.87;86.55;98993.66;8296053;28;20487;-55
2023/01/09 11:58:15;;;;;;;0.90;0.28;;;;;;;9.86;85.86;98991.13;8296078;28;20046;-53
2023/01/09 12:02:46;;;;;;;0.28;0.20;;;;;;;9.80;86.84;98986.41;8295664;28;20045;-51
2023/01/09 12:07:19;;;;;;;0.82;0.30;;;;;;;9.89;85.78;98986.19;8295767;28;20091;-53
2023/01/09 12:11:27;;;;;;;1.08;0.30;;;;;;;10.02;85.77;98991.06;8295068;28;20042;-54
2023/01/09 12:16:00;;;;;;;2.53;0.40;;;;;;;10.39;83.33;99004.78;8295346;28;20033;-52
2023/01/09 12:20:30;;;;;;;0.15;0.10;;;;;;;10.21;83.83;99012.28;8294990;28;20052;-52
2023/01/09 12:24:50;;;;;;;0.85;0.40;;;;;;;10.07;84.32;99018.44;8294810;28;20433;-52
2023/01/09 12:29:16;;;;;;;2.15;0.47;;;;;;;9.89;84.64;99020.47;8295835;28;20042;-53
2023/01/09 12:33:53;;;;;;;0.68;0.30;;;;;;;10.09;84.83;99031.75;8293653;28;20034;-53
2023/01/09 12:38:12;;;;;;;6.43;3.05;;;;;;;10.29;84.58;99022.22;8256064;28;20054;-52
2023/01/09 12:42:37;;;;;;;4.00;1.02;;;;;;;10.18;83.87;99026.13;8286971;28;20403;-53
2023/01/09 12:47:04;;;;;;;0.73;0.60;;;;;;;10.00;84.90;99030.88;8293853;28;20521;-54
2023/01/09 12:51:33;;;;;;;1.10;0.73;;;;;;;10.01;85.38;99021.78;8293964;28;20048;-53
2023/01/09 12:55:40;;;;;;;3.20;0.80;;;;;;;9.98;85.90;99022.13;8262145;28;20049;-53
2023/01/09 12:59:47;;;;;;;3.40;0.60;;;;;;;9.91;85.74;99015.72;8250980;28;20418;-52
2023/01/09 13:04:09;;;;;;;2.33;1.20;;;;;;;9.87;85.72;99011.69;8262452;28;20062;-49
2023/01/09 13:08:23;;;;;;;5.13;0.88;;;;;;;9.94;85.85;99015.38;8293613;28;20402;-52
2023/01/09 13:12:26;;;;;;;7.13;1.83;;;;;;;10.01;85.52;99024.50;8293815;28;20164;-55
2023/01/09 13:16:34;;;;;;;4.03;1.15;;;;;;;10.09;85.56;99029.88;8273475;28;21111;-53
2023/01/09 13:20:43;;;;;;;3.60;0.70;;;;;;;10.04;85.97;99037.63;8255063;28;20113;-54
2023/01/09 13:25:23;;;;;;;8.38;1.33;;;;;;;9.96;86.48;99034.94;8284977;28;20628;-52
2023/01/09 13:29:30;;;;;;;3.10;0.63;;;;;;;9.80;87.35;99029.59;8260306;28;20042;-50
2023/01/09 13:33:36;;;;;;;4.88;0.75;;;;;;;9.57;88.28;99047.50;8270424;28;20575;-53
2023/01/09 13:37:36;;;;;;;5.45;0.95;;;;;;;9.45;89.29;99049.69;8278868;28;20046;-54
2023/01/09 13:42:46;;;;;;;2.00;0.80;;;;;;;9.40;89.44;99062.03;8299422;28;20056;-52
2023/01/09 13:46:07;;;;;;;3.20;1.05;;;;;;;9.43;90.08;99077.88;8291197;28;20165;-54
2023/01/09 13:54:58;;;;;;;3.80;1.23;;;;;;;9.61;89.96;99097.44;8319613;28;20397;-50
2023/01/09 13:59:01;;;;;;;5.50;1.52;;;;;;;9.65;87.34;99107.72;8289545;28;20040;-50
2023/01/09 14:03:26;;;;;;;3.13;1.50;;;;;;;9.65;87.40;99112.25;8283038;28;20149;-51
2023/01/09 14:07:31;;;;;;;6.88;1.33;;;;;;;9.69;87.85;99108.19;8285996;28;20491;-51
2023/01/09 14:11:32;;;;;;;4.38;1.50;;;;;;;9.71;87.30;99122.38;8286456;28;20042;-51
2023/01/09 14:15:38;;;;;;;3.47;1.60;;;;;;;9.72;87.55;99132.13;8284781;28;20081;-50
2023/01/09 14:19:39;;;;;;;2.80;1.38;;;;;;;9.74;87.17;99149.00;8274805;28;20136;-51
2023/01/09 14:24:00;;;;;;;5.40;1.80;;;;;;;9.67;88.98;99156.94;8303480;28;20041;-51
2023/01/09 14:36:40;;;;;;;4.38;1.85;;;;;;;9.59;90.06;99183.06;8398969;27;20360;-51
2023/01/09 14:40:50;;;;;;;4.60;1.65;;;;;;;9.62;89.88;99193.53;8370152;27;20041;-52
2023/01/09 14:44:58;;;;;;;4.20;1.10;;;;;;;9.57;89.46;99196.72;8350242;28;20037;-52
2023/01/09 14:49:06;;;;;;;3.38;1.10;;;;;;;9.55;89.15;99211.41;8361190;28;20045;-51
2023/01/09 14:57:24;;;;;;;5.55;1.13;;;;;;;9.43;89.21;99226.22;8352534;27;20422;-51
2023/01/09 15:01:26;;;;;;;4.53;0.77;;;;;;;9.35;89.05;99239.66;8376639;28;20246;-50
2023/01/09 15:05:27;;;;;;;3.00;0.93;;;;;;;9.32;89.96;99239.97;8348101;28;20247;-50
2023/01/09 15:13:50;;;;;;;4.40;2.40;;;;;;;9.28;89.61;99279.94;8322311;28;20378;-53
2023/01/09 15:17:57;;;;;;;7.05;1.90;;;;;;;9.29;90.54;99292.41;8313547;28;20040;-46
2023/01/09 15:22:04;;;;;;;5.57;1.80;;;;;;;9.19;90.86;99310.56;8327861;28;20124;-51
2023/01/09 15:26:24;;;;;;;3.05;1.40;;;;;;;9.15;90.74;99319.13;8322278;28;20046;-51
2023/01/09 15:30:34;;;;;;;6.05;2.47;;;;;;;9.11;91.31;99315.91;8311152;28;20044;-52
2023/01/09 15:34:35;;;;;;;6.72;2.03;;;;;;;9.09;91.20;99330.56;8304907;28;20042;-51
2023/01/09 15:38:38;;;;;;;10.77;2.55;;;;;;;8.99;92.87;99327.13;8303539;28;20389;-47
2023/01/09 15:42:54;;;;;;;8.40;2.85;;;;;;;8.96;93.15;99340.91;8325117;28;20044;-49
2023/01/09 15:46:58;;;;;;;3.17;1.98;;;;;;;8.95;93.08;99350.00;8336668;28;20493;-51
2023/01/09 15:51:04;;;;;;;5.15;2.00;;;;;;;8.94;92.58;99356.41;8328847;28;20529;-52
2023/01/09 15:55:33;;;;;;;6.78;1.40;;;;;;;8.88;92.61;99365.97;8335164;28;20703;-49
2023/01/09 15:59:34;;;;;;;7.50;4.50;;;;;;;8.87;92.19;99376.91;8335585;28;20037;-50
2023/01/09 16:03:37;;;;;;;37.10;17.90;;;;;;;8.86;91.37;99383.28;8336207;28;20128;-51
2023/01/09 16:07:44;;;;;;;6.28;2.58;;;;;;;8.81;91.30;99393.72;8334580;28;20059;-51
2023/01/09 16:11:48;;;;;;;4.18;1.75;;;;;;;8.74;92.36;99395.31;8335533;28;20103;-51
2023/01/09 16:15:49;;;;;;;4.07;1.67;;;;;;;8.70;92.96;99404.72;8333943;28;20033;-52
2023/01/09 16:19:57;;;;;;;10.10;1.70;;;;;;;8.71;93.13;99403.72;8333625;28;20402;-54
2023/01/09 16:28:27;;;;;;;3.97;2.00;;;;;;;8.77;90.82;99421.97;8300936;28;20406;-53
2023/01/09 16:32:32;;;;;;;7.13;1.85;;;;;;;8.76;90.99;99431.06;8292861;28;20041;-54
2023/01/09 16:36:34;;;;;;;2.28;1.30;;;;;;;8.78;89.93;99443.38;8298595;28;20049;-55
2023/01/09 16:40:35;;;;;;;7.28;1.60;;;;;;;8.81;89.47;99455.69;8296249;28;20037;-51
2023/01/09 16:44:36;;;;;;;5.43;1.70;;;;;;;8.82;89.61;99452.00;8308025;28;20038;-52
2023/01/09 16:48:37;;;;;;;6.53;1.60;;;;;;;8.81;89.40;99461.91;8297492;28;20042;-51
2023/01/09 16:52:38;;;;;;;7.05;1.90;;;;;;;8.76;89.67;99463.38;8295227;28;20404;-52
2023/01/09 16:56:40;;;;;;;2.78;1.58;;;;;;;8.71;90.00;99465.69;8294192;28;20045;-49
2023/01/09 17:00:41;;;;;;;6.22;1.77;;;;;;;8.66;90.17;99462.63;8293651;28;21041;-50
2023/01/09 17:04:41;;;;;;;4.50;2.10;;;;;;;8.67;90.17;99469.69;8288224;28;20042;-50
2023/01/09 17:08:43;;;;;;;6.22;2.15;;;;;;;8.63;90.22;99468.31;8287772;28;20147;-47
2023/01/09 17:12:43;;;;;;;11.57;1.92;;;;;;;8.64;90.49;99480.78;8293575;28;20034;-53
2023/01/09 17:16:44;;;;;;;4.95;1.70;;;;;;;8.57;91.26;99471.63;8293989;28;20495;-50
2023/01/09 17:20:47;;;;;;;6.78;2.30;;;;;;;8.51;91.71;99480.31;8292507;28;20064;-50
2023/01/09 17:29:08;;;;;;;16.15;2.90;;;;;;;8.37;92.78;99494.31;8292851;28;20091;-51
2023/01/09 17:33:15;;;;;;;9.18;2.67;;;;;;;8.39;92.56;99503.09;8295450;28;20041;-49
2023/01/09 17:37:17;;;;;;;7.35;2.35;;;;;;;8.49;92.82;99503.88;8288718;28;20033;-51
2023/01/09 17:41:17;;;;;;;7.93;2.00;;;;;;;8.60;92.47;99511.72;8276371;28;20046;-50
2023/01/09 17:45:18;;;;;;;6.57;1.90;;;;;;;8.70;91.98;99518.75;8275933;28;20048;-51
2023/01/09 17:49:20;;;;;;;7.13;2.25;;;;;;;8.78;91.28;99523.38;8276131;28;20036;-51
2023/01/09 17:53:21;;;;;;;5.57;1.70;;;;;;;8.88;91.07;99533.03;8271398;28;20192;-49
2023/01/09 17:57:22;;;;;;;11.00;1.80;;;;;;;8.86;92.73;99529.69;8280088;28;20038;-51
2023/01/09 18:01:22;;;;;;;8.57;2.17;;;;;;;8.77;95.22;99546.75;8276276;28;20172;-53
2023/01/09 18:05:23;;;;;;;16.10;2.00;;;;;;;8.67;97.40;99546.00;8272028;28;20041;-56
2023/01/09 18:09:24;;;;;;;12.38;2.42;;;;;;;8.57;98.87;99539.81;8276701;28;20034;-53
2023/01/09 18:13:25;;;;;;;6.10;1.90;;;;;;;8.53;98.84;99553.72;8275522;28;20037;-57
2023/01/09 18:17:25;;;;;;;6.63;2.30;;;;;;;8.50;98.47;99556.72;8281079;28;20049;-56
2023/01/09 18:21:28;;;;;;;12.73;4.55;;;;;;;8.47;98.10;99557.03;8274669;28;20043;-56
2023/01/09 18:25:28;;;;;;;10.35;4.40;;;;;;;8.38;97.57;99571.41;8271168;28;20047;-53
2023/01/09 18:29:28;;;;;;;18.17;6.07;;;;;;;8.40;98.47;99580.16;8274772;28;20054;-56
2023/01/09 18:33:29;;;;;;;7.97;3.05;;;;;;;8.43;98.74;99601.41;8274396;28;20494;-56
2023/01/09 18:37:29;;;;;;;8.93;2.95;;;;;;;8.50;100.00;99611.44;8276708;28;20049;-56
2023/01/09 18:41:31;;;;;;;15.95;3.45;;;;;;;8.41;100.00;99608.78;8273622;28;20504;-56
2023/01/09 18:45:31;;;;;;;10.38;2.60;;;;;;;8.42;100.00;99627.50;8273309;28;20066;-56
2023/01/09 18:49:32;;;;;;;8.13;4.18;;;;;;;8.46;100.00;99644.22;8272679;28;20050;-54
2023/01/09 18:53:33;;;;;;;15.65;5.78;;;;;;;8.48;100.00;99643.06;8273675;28;20062;-54
2023/01/09 18:57:33;;;;;;;11.73;4.97;;;;;;;8.46;100.00;99644.22;8282136;28;20108;-50
2023/01/09 19:01:34;;;;;;;11.98;5.93;;;;;;;8.47;100.00;99646.75;8281721;28;20045;-55
2023/01/09 19:05:34;;;;;;;16.60;8.00;;;;;;;8.47;100.00;99656.66;8281355;28;20049;-56
2023/01/09 19:09:35;;;;;;;18.52;7.30;;;;;;;8.46;100.00;99663.91;8281231;28;20046;-52
2023/01/09 19:13:36;;;;;;;17.10;9.60;;;;;;;8.51;100.00;99674.25;8282834;28;20049;-54
2023/01/09 19:17:38;;;;;;;12.93;5.43;;;;;;;8.53;100.00;99677.63;8282112;28;20046;-53
2023/01/09 19:21:38;;;;;;;12.43;5.25;;;;;;;8.60;100.00;99684.97;8280132;28;20515;-54
2023/01/09 19:25:39;;;;;;;8.98;4.90;;;;;;;8.65;100.00;99692.59;8280251;28;20427;-53
2023/01/09 19:29:39;;;;;;;10.07;4.57;;;;;;;8.68;100.00;99705.78;8277984;28;20045;-55
2023/01/09 19:33:40;;;;;;;12.90;4.72;;;;;;;8.73;99.87;99712.44;8280858;28;20042;-55
2023/01/09 19:37:40;;;;;;;7.80;4.35;;;;;;;8.74;99.99;99724.06;8281574;28;20040;-54
2023/01/09 19:41:41;;;;;;;10.48;4.82;;;;;;;8.68;100.00;99721.94;8281024;28;20042;-55
2023/01/09 19:45:41;;;;;;;10.30;4.47;;;;;;;8.61;100.00;99740.56;8281775;28;20129;-55
2023/01/09 19:49:41;;;;;;;10.18;4.32;;;;;;;8.55;100.00;99741.16;8281862;28;20046;-54
2023/01/09 19:53:42;;;;;;;10.13;4.40;;;;;;;8.50;100.00;99747.94;8280343;28;20317;-55
2023/01/09 19:57:43;;;;;;;10.65;4.18;;;;;;;8.36;100.00;99748.44;8280693;28;20065;-53
2023/01/09 20:01:44;;;;;;;8.32;3.67;;;;;;;8.27;100.00;99746.63;8279697;28;20488;-53
2023/01/09 20:05:45;;;;;;;7.03;3.58;;;;;;;8.31;100.00;99769.56;8279176;28;20402;-55